createdAt,value
2022-11-20T00:01:37.433Z,41.00
2022-11-20T00:04:07.126Z,36.27
2022-11-20T00:06:35.415Z,34.28
2022-11-20T00:09:04.344Z,30.30
2022-11-20T00:11:33.905Z,29.70
2022-11-20T00:14:04.060Z,30.43
2022-11-20T00:16:35.371Z,28.73
2022-11-20T00:19:04.083Z,33.50
2022-11-20T00:21:34.192Z,28.50
2022-11-20T00:24:02.472Z,29.65
2022-11-20T00:26:31.326Z,34.03
2022-11-20T00:29:01.803Z,29.10
2022-11-20T00:31:31.667Z,26.40
2022-11-20T00:33:59.996Z,30.08
2022-11-20T00:36:30.852Z,26.30
2022-11-20T00:39:01.161Z,28.47
2022-11-20T00:41:30.813Z,28.17
2022-11-20T00:43:59.430Z,25.20
2022-11-20T00:46:30.117Z,28.83
2022-11-20T00:48:59.073Z,27.47
2022-11-20T00:51:29.203Z,26.30
2022-11-20T00:54:00.987Z,28.10
2022-11-20T00:56:29.806Z,29.37
2022-11-20T00:59:01.470Z,26.17
2022-11-20T01:01:31.084Z,25.87
2022-11-20T01:04:01.779Z,33.35
2022-11-20T01:06:32.821Z,26.77
2022-11-20T01:09:06.316Z,28.93
2022-11-20T01:11:37.373Z,26.07
2022-11-20T01:14:08.658Z,28.10
2022-11-20T01:16:39.916Z,26.70
2022-11-20T01:19:17.345Z,25.53
2022-11-20T01:21:48.448Z,30.83
2022-11-20T01:24:20.817Z,28.47
2022-11-20T01:26:51.970Z,31.47
2022-11-20T01:29:23.954Z,28.57
2022-11-20T01:31:53.671Z,28.57
2022-11-20T01:34:24.302Z,28.70
2022-11-20T01:39:25.004Z,26.73
2022-11-20T01:42:13.861Z,29.03
2022-11-20T01:44:54.248Z,27.93
2022-11-20T01:47:32.634Z,29.15
2022-11-20T01:50:06.840Z,27.63
2022-11-20T01:52:41.412Z,25.37
2022-11-20T01:55:16.916Z,27.97
2022-11-20T01:57:47.909Z,28.43
2022-11-20T02:00:20.768Z,27.67
2022-11-20T02:02:54.175Z,26.83
2022-11-20T02:05:33.417Z,30.13
2022-11-20T02:08:03.951Z,28.03
2022-11-20T02:13:19.987Z,27.50
2022-11-20T02:15:49.141Z,30.07
2022-11-20T02:18:21.296Z,26.80
2022-11-20T02:20:54.402Z,28.23
2022-11-20T02:23:32.142Z,27.23
2022-11-20T02:26:04.308Z,27.13
2022-11-20T02:28:32.700Z,28.50
2022-11-20T02:31:01.050Z,25.73
2022-11-20T02:33:29.351Z,28.83
2022-11-20T02:35:57.668Z,28.10
2022-11-20T02:38:26.279Z,26.23
2022-11-20T02:40:55.868Z,29.77
2022-11-20T02:43:26.114Z,26.85
2022-11-20T02:45:54.442Z,27.90
2022-11-20T02:48:25.095Z,27.30
2022-11-20T02:50:53.684Z,30.10
2022-11-20T02:53:22.025Z,27.87
2022-11-20T02:55:50.399Z,27.43
2022-11-20T02:58:18.783Z,30.27
2022-11-20T03:00:48.508Z,26.90
2022-11-20T03:03:16.845Z,25.83
2022-11-20T03:05:45.139Z,28.03
2022-11-20T03:08:13.407Z,28.57
2022-11-20T03:10:41.760Z,27.80
2022-11-20T03:13:10.358Z,29.20
2022-11-20T03:15:39.607Z,27.63
2022-11-20T03:18:09.354Z,26.37
2022-11-20T03:20:37.711Z,27.77
2022-11-20T03:23:06.290Z,27.80
2022-11-20T03:25:34.616Z,27.80
2022-11-20T03:28:03.065Z,28.70
2022-11-20T03:30:31.374Z,28.00
2022-11-20T03:32:59.956Z,28.17
2022-11-20T03:35:29.722Z,29.57
2022-11-20T03:37:59.621Z,28.45
2022-11-20T03:40:28.059Z,26.05
2022-11-20T03:42:56.484Z,29.43
2022-11-20T03:45:25.012Z,28.00
2022-11-20T03:47:53.770Z,28.83
2022-11-20T03:50:22.282Z,25.67
2022-11-20T03:52:52.249Z,27.83
2022-11-20T03:55:20.904Z,30.13
2022-11-20T03:57:49.242Z,29.13
2022-11-20T04:00:18.612Z,27.27
2022-11-20T04:02:46.985Z,27.03
2022-11-20T04:05:15.481Z,28.70
2022-11-20T04:07:43.795Z,29.13
2022-11-20T04:10:13.675Z,27.33
2022-11-20T04:12:41.965Z,29.08
2022-11-20T04:15:11.354Z,28.53
2022-11-20T04:17:39.729Z,30.17
2022-11-20T04:20:09.784Z,28.90
2022-11-20T04:22:38.155Z,27.98
2022-11-20T04:25:07.309Z,30.27
2022-11-20T04:27:37.014Z,27.90
2022-11-20T04:30:06.409Z,29.67
2022-11-20T04:32:34.717Z,28.07
2022-11-20T04:35:03.090Z,30.43
2022-11-20T04:37:31.431Z,30.20
2022-11-20T04:39:59.950Z,33.60
2022-11-20T04:42:30.956Z,28.23
2022-11-20T04:45:00.777Z,30.60
2022-11-20T04:47:29.470Z,28.70
2022-11-20T04:49:57.933Z,27.07
2022-11-20T04:52:26.287Z,30.00
2022-11-20T04:54:54.839Z,29.30
2022-11-20T04:57:23.770Z,29.53
2022-11-20T04:59:52.185Z,29.90
2022-11-20T05:02:22.227Z,29.50
2022-11-20T05:04:50.669Z,29.35
2022-11-20T05:07:19.255Z,30.00
2022-11-20T05:09:47.714Z,31.80
2022-11-20T05:12:16.151Z,30.57
2022-11-20T05:14:44.671Z,28.27
2022-11-20T05:17:13.684Z,30.30
2022-11-20T05:19:43.413Z,28.37
2022-11-20T05:22:11.831Z,27.80
2022-11-20T05:24:40.247Z,31.20
2022-11-20T05:27:08.665Z,31.40
2022-11-20T05:29:37.068Z,29.47
2022-11-20T05:32:06.809Z,28.77
2022-11-20T05:34:35.443Z,31.95
2022-11-20T05:37:05.549Z,30.53
2022-11-20T05:39:33.823Z,29.85
2022-11-20T05:42:19.726Z,30.60
2022-11-20T05:44:48.180Z,29.27
2022-11-20T05:47:16.472Z,30.67
2022-11-20T05:49:44.839Z,32.47
2022-11-20T05:52:14.540Z,31.17
2022-11-20T05:54:42.973Z,31.40
2022-11-20T05:57:11.370Z,30.90
2022-11-20T05:59:39.753Z,29.47
2022-11-20T06:02:08.141Z,29.70
2022-11-20T06:04:36.502Z,34.73
2022-11-20T06:07:06.592Z,30.90
2022-11-20T06:09:36.653Z,29.33
2022-11-20T06:12:05.931Z,34.65
2022-11-20T06:14:34.428Z,30.00
2022-11-20T06:17:02.894Z,31.10
2022-11-20T06:19:31.255Z,30.07
2022-11-20T06:21:59.606Z,30.67
2022-11-20T06:24:28.065Z,30.70
2022-11-20T06:26:57.837Z,29.07
2022-11-20T06:29:30.087Z,31.38
2022-11-20T06:32:02.096Z,31.33
2022-11-20T06:34:30.496Z,31.13
2022-11-20T06:36:58.937Z,32.30
2022-11-20T06:39:27.300Z,28.80
2022-11-20T06:41:58.958Z,31.37
2022-11-20T06:44:28.109Z,31.33
2022-11-20T06:46:56.452Z,32.57
2022-11-20T06:49:25.191Z,30.50
2022-11-20T06:51:53.663Z,30.67
2022-11-20T06:54:22.124Z,30.63
2022-11-20T06:56:50.945Z,33.73
2022-11-20T06:59:21.093Z,35.20
2022-11-20T07:01:49.555Z,33.83
2022-11-20T07:04:17.868Z,33.80
2022-11-20T07:06:46.532Z,30.70
2022-11-20T07:09:15.039Z,34.57
2022-11-20T07:11:43.458Z,33.03
2022-11-20T07:14:11.938Z,33.27
2022-11-20T07:16:41.660Z,34.63
2022-11-20T07:19:10.014Z,33.50
2022-11-20T07:21:38.381Z,33.27
2022-11-20T07:24:07.198Z,35.03
2022-11-20T07:26:36.490Z,32.57
2022-11-20T07:29:04.941Z,36.23
2022-11-20T07:31:33.229Z,35.53
2022-11-20T07:34:03.189Z,35.90
2022-11-20T07:36:31.539Z,34.13
2022-11-20T07:38:59.835Z,39.03
2022-11-20T07:41:28.643Z,35.77
2022-11-20T07:43:57.081Z,34.63
2022-11-20T07:46:25.455Z,36.63
2022-11-20T07:48:54.278Z,37.57
2022-11-20T07:51:24.158Z,35.30
2022-11-20T07:53:55.879Z,42.83
2022-11-20T07:56:24.205Z,46.70
2022-11-20T07:58:52.658Z,42.40
2022-11-20T08:01:21.289Z,38.23
2022-11-20T08:03:49.639Z,35.83
2022-11-20T08:06:19.536Z,37.47
2022-11-20T08:08:49.339Z,41.28
2022-11-20T08:11:49.623Z,42.53
2022-11-20T08:14:18.017Z,39.83
2022-11-20T08:16:49.045Z,42.00
2022-11-20T08:19:19.824Z,43.50
2022-11-20T08:21:48.542Z,37.80
2022-11-20T08:24:18.278Z,41.10
2022-11-20T08:26:46.740Z,37.17
2022-11-20T08:29:15.097Z,40.97
2022-11-20T08:31:43.876Z,43.07
2022-11-20T08:34:17.644Z,38.27
2022-11-20T08:36:47.526Z,38.77
2022-11-20T08:39:18.285Z,39.13
2022-11-20T08:41:46.761Z,37.80
2022-11-20T08:44:15.052Z,46.20
2022-11-20T08:46:44.929Z,41.67
2022-11-20T08:49:15.744Z,44.15
2022-11-20T08:51:44.722Z,45.17
2022-11-20T08:54:13.114Z,44.70
2022-11-20T08:56:42.913Z,48.57
2022-11-20T08:59:36.761Z,57.70
2022-11-20T09:01:59.593Z,46.83
2022-11-20T09:04:27.872Z,48.97
2022-11-20T09:06:56.160Z,51.20
2022-11-20T09:09:25.053Z,50.50
2022-11-20T09:11:55.001Z,49.73
2022-11-20T09:14:25.777Z,47.40
2022-11-20T09:16:54.391Z,47.10
2022-11-20T09:19:38.245Z,51.67
2022-11-20T09:22:06.657Z,53.83
2022-11-20T09:24:35.002Z,52.73
2022-11-20T09:27:08.011Z,57.40
2022-11-20T09:29:36.393Z,54.80
2022-11-20T09:32:05.005Z,54.50
2022-11-20T09:34:34.064Z,57.07
2022-11-20T09:37:06.158Z,55.83
2022-11-20T09:39:39.751Z,60.43
2022-11-20T09:42:35.356Z,60.27
2022-11-20T09:45:28.723Z,59.00
2022-11-20T09:48:32.179Z,60.63
2022-11-20T09:51:15.957Z,57.93
2022-11-20T09:54:02.930Z,59.53
2022-11-20T09:56:31.681Z,60.97
2022-11-20T09:59:07.529Z,63.93
2022-11-20T10:01:41.873Z,62.57
2022-11-20T10:04:18.436Z,65.70
2022-11-20T10:07:30.165Z,66.70
2022-11-20T10:09:52.853Z,65.50
2022-11-20T10:12:29.646Z,63.07
2022-11-20T10:15:22.012Z,66.70
2022-11-20T10:18:13.596Z,61.90
2022-11-20T10:20:51.019Z,65.13
2022-11-20T10:23:50.692Z,67.17
2022-11-20T10:26:30.646Z,63.40
2022-11-20T10:29:12.309Z,58.88
2022-11-20T10:31:44.515Z,59.87
2022-11-20T10:34:24.309Z,64.47
2022-11-20T10:36:58.077Z,61.40
2022-11-20T10:39:37.433Z,68.53
2022-11-20T10:42:13.683Z,68.47
2022-11-20T10:45:06.333Z,63.80
2022-11-20T10:47:36.873Z,69.30
2022-11-20T10:50:10.982Z,71.88
2022-11-20T10:52:50.223Z,71.57
2022-11-20T10:55:35.289Z,72.60
2022-11-20T10:58:12.476Z,72.17
2022-11-20T11:00:41.135Z,72.63
2022-11-20T11:03:28.262Z,68.60
2022-11-20T11:06:06.178Z,67.00
2022-11-20T11:08:40.494Z,65.10
2022-11-20T11:11:22.414Z,68.33
2022-11-20T11:13:51.177Z,71.67
2022-11-20T11:16:24.181Z,75.97
2022-11-20T11:18:54.384Z,76.53
2022-11-20T11:21:26.225Z,76.63
2022-11-20T11:24:19.569Z,83.87
2022-11-20T11:26:57.386Z,81.83
2022-11-20T11:29:27.814Z,78.57
2022-11-20T11:32:07.371Z,83.72
2022-11-20T11:34:37.260Z,90.70
2022-11-20T11:37:06.576Z,87.95
2022-11-20T11:39:44.681Z,87.80
2022-11-20T11:42:20.158Z,92.53
2022-11-20T11:45:07.854Z,90.07
2022-11-20T11:47:45.104Z,88.87
2022-11-20T11:50:22.024Z,82.30
2022-11-20T11:53:11.447Z,82.43
2022-11-20T11:55:46.065Z,86.20
2022-11-20T11:58:30.527Z,87.37
2022-11-20T12:01:05.545Z,84.03
2022-11-20T12:03:39.622Z,82.27
2022-11-20T12:06:15.823Z,86.13
2022-11-20T12:08:51.777Z,85.53
2022-11-20T12:11:28.834Z,79.37
2022-11-20T12:14:03.038Z,86.73
2022-11-20T12:16:37.215Z,78.90
2022-11-20T12:19:13.156Z,80.23
2022-11-20T12:22:01.467Z,86.40
2022-11-20T12:24:46.030Z,81.60
2022-11-20T12:27:46.660Z,78.37
2022-11-20T12:30:17.727Z,89.50
2022-11-20T12:33:10.429Z,85.03
2022-11-20T12:35:55.109Z,90.53
2022-11-20T12:38:42.738Z,89.40
2022-11-20T12:41:41.122Z,93.70
2022-11-20T12:44:42.983Z,90.93
2022-11-20T12:47:23.778Z,90.63
2022-11-20T12:50:00.395Z,92.00
2022-11-20T12:52:44.835Z,91.30
2022-11-20T12:55:30.882Z,94.90
2022-11-20T12:58:10.754Z,91.80
2022-11-20T13:00:51.786Z,88.55
2022-11-20T13:03:39.262Z,101.43
2022-11-20T13:06:16.498Z,89.20
2022-11-20T13:08:50.879Z,99.40
2022-11-20T13:11:27.678Z,91.87
2022-11-20T13:14:18.854Z,101.27
2022-11-20T13:16:54.511Z,99.17
2022-11-20T13:19:23.771Z,97.37
2022-11-20T13:21:52.786Z,96.87
2022-11-20T13:24:28.887Z,94.57
2022-11-20T13:27:22.745Z,98.10
2022-11-20T13:30:12.902Z,100.03
2022-11-20T13:32:51.966Z,101.45
2022-11-20T13:35:34.993Z,98.33
2022-11-20T13:38:10.496Z,102.70
2022-11-20T13:40:41.059Z,106.05
2022-11-20T13:46:03.997Z,106.93
2022-11-20T13:48:35.364Z,108.00
2022-11-20T13:51:30.178Z,102.43
2022-11-20T13:54:20.397Z,106.17
2022-11-20T13:57:04.041Z,106.43
2022-11-20T13:59:58.379Z,100.67
2022-11-20T14:02:30.119Z,100.53
2022-11-20T14:05:01.094Z,103.97
2022-11-20T14:07:38.335Z,95.80
2022-11-20T14:10:08.077Z,103.97
2022-11-20T14:12:37.876Z,101.35
2022-11-20T14:15:25.606Z,109.10
2022-11-20T14:17:54.002Z,117.73
2022-11-20T14:20:26.483Z,107.37
2022-11-20T14:22:56.102Z,107.63
2022-11-20T14:25:28.184Z,104.10
2022-11-20T14:28:00.070Z,113.53
2022-11-20T14:30:38.519Z,113.93
2022-11-20T14:33:07.141Z,114.60
2022-11-20T14:35:47.378Z,116.07
2022-11-20T14:38:20.104Z,114.97
2022-11-20T14:40:48.516Z,116.17
2022-11-20T14:43:24.872Z,121.67
2022-11-20T14:46:02.394Z,130.83
2022-11-20T14:48:36.294Z,112.33
2022-11-20T14:51:04.865Z,115.80
2022-11-20T14:53:33.265Z,118.83
2022-11-20T14:56:04.113Z,127.73
2022-11-20T14:58:35.380Z,119.93
2022-11-20T15:01:08.121Z,114.03
2022-11-20T15:03:39.355Z,116.20
2022-11-20T15:06:09.643Z,106.07
2022-11-20T15:08:38.658Z,110.18
2022-11-20T15:11:20.706Z,115.93
2022-11-20T15:13:49.139Z,107.93
2022-11-20T15:16:21.569Z,104.93
2022-11-20T15:18:50.592Z,106.70
2022-11-20T15:21:21.837Z,111.87
2022-11-20T15:23:50.685Z,103.15
2022-11-20T15:26:26.528Z,99.67
2022-11-20T15:28:55.623Z,105.47
2022-11-20T15:31:26.065Z,104.00
2022-11-20T15:33:54.585Z,98.35
2022-11-20T15:36:22.938Z,96.13
2022-11-20T15:38:51.402Z,92.63
2022-11-20T15:41:19.848Z,93.80
2022-11-20T15:43:48.246Z,89.13
2022-11-20T15:46:18.685Z,89.15
2022-11-20T15:48:56.877Z,83.47
2022-11-20T15:51:29.726Z,77.55
2022-11-20T15:53:58.970Z,81.53
2022-11-20T15:56:27.980Z,89.57
2022-11-20T15:58:56.363Z,82.75
2022-11-20T16:01:25.182Z,81.38
2022-11-20T16:03:54.854Z,75.57
2022-11-20T16:06:23.176Z,78.67
2022-11-20T16:08:51.622Z,73.60
2022-11-20T16:11:20.984Z,84.93
2022-11-20T16:14:06.885Z,83.57
2022-11-20T16:16:37.415Z,76.25
2022-11-20T16:19:07.632Z,73.38
2022-11-20T16:21:38.302Z,71.07
2022-11-20T16:26:38.614Z,70.70
2022-11-20T16:29:08.367Z,63.80
2022-11-20T16:31:37.215Z,64.60
2022-11-20T16:34:12.188Z,65.40
2022-11-20T16:36:42.922Z,59.75
2022-11-20T16:39:12.045Z,61.25
2022-11-20T16:41:41.090Z,60.30
2022-11-20T16:44:12.522Z,56.65
2022-11-20T16:46:41.856Z,55.35
2022-11-20T16:49:15.200Z,53.90
2022-11-20T16:51:43.842Z,58.30
2022-11-20T16:54:16.397Z,58.55
2022-11-20T16:56:48.548Z,57.53
2022-11-20T16:59:17.127Z,57.17
2022-11-20T17:01:45.565Z,54.92
2022-11-20T17:04:15.505Z,58.10
2022-11-20T17:06:45.840Z,55.13
2022-11-20T17:09:14.488Z,60.75
2022-11-20T17:11:43.212Z,58.17
2022-11-20T17:14:12.572Z,63.97
2022-11-20T17:16:41.312Z,52.42
2022-11-20T17:19:10.074Z,59.88
2022-11-20T17:21:40.401Z,54.55
2022-11-20T17:24:12.103Z,50.22
2022-11-20T17:26:43.243Z,54.65
2022-11-20T17:29:14.808Z,48.63
2022-11-20T17:31:44.548Z,48.22
2022-11-20T17:34:15.842Z,52.75
2022-11-20T17:36:46.612Z,50.15
2022-11-20T17:39:16.038Z,51.47
2022-11-20T17:41:44.769Z,53.97
2022-11-20T17:44:14.459Z,49.25
2022-11-20T17:46:43.020Z,47.27
2022-11-20T17:49:11.392Z,50.30
2022-11-20T17:51:40.695Z,44.97
2022-11-20T17:54:12.526Z,50.47
2022-11-20T17:56:58.257Z,47.33
2022-11-20T17:59:26.849Z,48.70
2022-11-20T18:01:56.786Z,51.38
2022-11-20T18:04:28.246Z,48.95
2022-11-20T18:06:56.649Z,47.30
2022-11-20T18:09:26.522Z,46.60
2022-11-20T18:11:55.075Z,46.10
2022-11-20T18:14:36.449Z,41.63
2022-11-20T18:17:08.165Z,48.80
2022-11-20T18:19:44.878Z,47.40
2022-11-20T18:22:24.046Z,49.70
2022-11-20T18:24:53.767Z,45.92
2022-11-20T18:27:23.922Z,48.65
2022-11-20T18:29:52.788Z,47.60
2022-11-20T18:32:22.629Z,48.65
2022-11-20T18:34:52.573Z,51.22
2022-11-20T18:37:21.602Z,43.10
2022-11-20T18:39:50.741Z,44.85
2022-11-20T18:42:38.131Z,45.10
2022-11-20T18:45:07.620Z,48.70
2022-11-20T18:47:40.231Z,49.17
2022-11-20T18:50:10.892Z,42.10
2022-11-20T18:52:45.533Z,35.28
2022-11-20T18:55:14.093Z,41.75
2022-11-20T18:57:43.920Z,44.58
2022-11-20T19:00:14.186Z,41.25
2022-11-20T19:02:43.538Z,42.45
2022-11-20T19:05:13.498Z,39.70
2022-11-20T19:07:42.092Z,42.58
2022-11-20T19:10:11.111Z,44.05
2022-11-20T19:12:39.597Z,38.67
2022-11-20T19:15:10.767Z,40.35
2022-11-20T19:17:39.229Z,39.85
2022-11-20T19:20:08.559Z,38.88
2022-11-20T19:22:37.312Z,41.63
2022-11-20T19:25:06.983Z,38.38
2022-11-20T19:27:35.516Z,34.05
2022-11-20T19:30:04.041Z,34.63
2022-11-20T19:32:35.313Z,35.90
2022-11-20T19:35:04.757Z,37.97
2022-11-20T19:37:35.156Z,40.92
2022-11-20T19:40:04.838Z,38.72
2022-11-20T19:42:33.812Z,42.83
2022-11-20T19:45:02.190Z,43.35
2022-11-20T19:48:00.532Z,41.55
2022-11-20T19:50:20.595Z,40.30
2022-11-20T19:52:51.074Z,41.65
2022-11-20T19:55:21.467Z,40.53
2022-11-20T19:57:50.106Z,40.38
2022-11-20T20:00:26.647Z,41.45
2022-11-20T20:02:59.529Z,42.13
2022-11-20T20:05:29.282Z,42.65
2022-11-20T20:07:57.704Z,48.80
2022-11-20T20:10:26.562Z,45.10
2022-11-20T20:12:54.884Z,43.58
2022-11-20T20:15:23.228Z,47.58
2022-11-20T20:17:53.402Z,43.13
2022-11-20T20:20:22.022Z,43.67
2022-11-20T20:22:51.818Z,41.60
2022-11-20T20:25:20.379Z,35.67
2022-11-20T20:27:48.771Z,50.75
2022-11-20T20:30:17.232Z,35.65
2022-11-20T20:32:45.616Z,35.42
2022-11-20T20:35:13.982Z,40.30
2022-11-20T20:37:42.418Z,36.85
2022-11-20T20:40:15.278Z,32.78
2022-11-20T20:42:43.919Z,34.72
2022-11-20T20:45:12.821Z,32.08
2022-11-20T20:47:42.622Z,29.65
2022-11-20T20:50:13.283Z,34.53
2022-11-20T20:55:12.688Z,24.88
2022-11-20T20:57:41.964Z,28.92
2022-11-20T21:00:11.351Z,27.52
2022-11-20T21:02:39.887Z,37.75
2022-11-20T21:05:09.190Z,23.88
2022-11-20T21:07:58.340Z,18.95
2022-11-20T21:10:28.327Z,24.83
2022-11-20T21:12:56.750Z,30.88
2022-11-20T21:15:25.069Z,29.02
2022-11-20T21:17:53.423Z,23.60
2022-11-20T21:20:39.512Z,25.40
2022-11-20T21:23:11.139Z,23.92
2022-11-20T21:25:41.372Z,22.80
2022-11-20T21:28:13.150Z,22.50
2022-11-20T21:30:45.463Z,23.20
2022-11-20T21:33:13.869Z,26.90
2022-11-20T21:35:42.381Z,23.42
2022-11-20T21:38:11.130Z,28.23
2022-11-20T21:40:40.890Z,23.85
2022-11-20T21:43:09.237Z,27.87
2022-11-20T21:45:37.683Z,26.27
2022-11-20T21:48:07.610Z,33.20
2022-11-20T21:50:36.344Z,27.40
2022-11-20T21:53:04.825Z,25.13
2022-11-20T21:55:33.129Z,30.88
2022-11-20T21:58:02.842Z,25.40
2022-11-20T22:00:31.309Z,26.73
2022-11-20T22:02:59.593Z,28.85
2022-11-20T22:05:28.015Z,30.63
2022-11-20T22:07:56.420Z,23.52
2022-11-20T22:10:24.756Z,29.02
2022-11-20T22:13:16.327Z,22.73
2022-11-20T22:16:00.372Z,21.73
2022-11-20T22:18:29.497Z,21.85
2022-11-20T22:20:57.836Z,26.65
2022-11-20T22:23:26.257Z,23.58
2022-11-20T22:25:54.885Z,22.90
2022-11-20T22:28:23.283Z,21.90
2022-11-20T22:30:52.929Z,20.35
2022-11-20T22:33:21.460Z,18.92
2022-11-20T22:35:49.766Z,18.92
2022-11-20T22:38:18.066Z,16.35
2022-11-20T22:40:46.813Z,13.88
2022-11-20T22:43:16.215Z,15.27
2022-11-20T22:45:45.658Z,15.57
2022-11-20T22:48:15.540Z,18.83
2022-11-20T22:50:43.866Z,17.90
2022-11-20T22:53:12.140Z,15.68
2022-11-20T22:55:40.538Z,24.92
2022-11-20T22:58:08.845Z,23.77
2022-11-20T23:00:37.168Z,20.83
2022-11-20T23:03:05.515Z,14.40
2022-11-20T23:05:35.315Z,12.70
2022-11-20T23:08:03.718Z,11.30
2022-11-20T23:10:32.212Z,14.70
2022-11-20T23:13:00.524Z,12.35
2022-11-20T23:15:28.843Z,17.38
2022-11-20T23:17:57.155Z,15.43
2022-11-20T23:20:25.566Z,15.15
2022-11-20T23:22:55.270Z,15.35
2022-11-20T23:25:23.624Z,18.23
2022-11-20T23:27:51.967Z,22.50
2022-11-20T23:30:20.557Z,25.30
2022-11-20T23:32:48.961Z,22.08
2022-11-20T23:35:17.478Z,25.52
2022-11-20T23:37:45.733Z,24.48
2022-11-20T23:40:15.947Z,26.25
2022-11-20T23:43:04.289Z,27.23
2022-11-20T23:45:32.639Z,26.73
2022-11-20T23:48:00.936Z,29.20
2022-11-20T23:50:29.238Z,28.77
2022-11-20T23:52:57.552Z,28.55
2022-11-20T23:55:27.386Z,32.15
2022-11-20T23:57:55.756Z,28.55
